sensor_id;sensor_type;location;lat;lon;timestamp;P1;durP1;ratioP1;P2;durP2;ratioP2
70806;SDS011;58882;52.170;5.386;2023-08-17T00:01:35;7.82;;;2.10;;
70806;SDS011;58882;52.170;5.386;2023-08-17T00:04:02;10.10;;;2.08;;
70806;SDS011;58882;52.170;5.386;2023-08-17T00:06:29;4.18;;;1.90;;
70806;SDS011;58882;52.170;5.386;2023-08-17T00:08:56;6.60;;;2.00;;
70806;SDS011;58882;52.170;5.386;2023-08-17T00:11:23;5.25;;;1.80;;
70806;SDS011;58882;52.170;5.386;2023-08-17T00:13:50;7.95;;;2.00;;
70806;SDS011;58882;52.170;5.386;2023-08-17T00:16:17;5.93;;;1.88;;
70806;SDS011;58882;52.170;5.386;2023-08-17T00:18:44;8.60;;;2.08;;
70806;SDS011;58882;52.170;5.386;2023-08-17T00:21:10;5.07;;;1.92;;
70806;SDS011;58882;52.170;5.386;2023-08-17T00:23:37;5.43;;;2.30;;
70806;SDS011;58882;52.170;5.386;2023-08-17T00:26:04;5.00;;;2.00;;
70806;SDS011;58882;52.170;5.386;2023-08-17T00:28:31;4.75;;;1.92;;
70806;SDS011;58882;52.170;5.386;2023-08-17T00:30:59;6.60;;;1.85;;
70806;SDS011;58882;52.170;5.386;2023-08-17T00:33:27;5.72;;;2.65;;
70806;SDS011;58882;52.170;5.386;2023-08-17T00:35:54;6.25;;;2.13;;
70806;SDS011;58882;52.170;5.386;2023-08-17T00:38:21;6.13;;;2.05;;
70806;SDS011;58882;52.170;5.386;2023-08-17T00:40:48;4.88;;;2.10;;
70806;SDS011;58882;52.170;5.386;2023-08-17T00:43:14;5.50;;;2.08;;
70806;SDS011;58882;52.170;5.386;2023-08-17T00:45:42;8.00;;;2.38;;
70806;SDS011;58882;52.170;5.386;2023-08-17T00:48:12;6.28;;;2.03;;
70806;SDS011;58882;52.170;5.386;2023-08-17T00:50:39;7.90;;;1.88;;
70806;SDS011;58882;52.170;5.386;2023-08-17T00:53:07;4.70;;;2.03;;
70806;SDS011;58882;52.170;5.386;2023-08-17T00:55:39;8.90;;;2.13;;
70806;SDS011;58882;52.170;5.386;2023-08-17T00:58:07;5.15;;;1.90;;
70806;SDS011;58882;52.170;5.386;2023-08-17T01:00:34;8.38;;;2.40;;
70806;SDS011;58882;52.170;5.386;2023-08-17T01:03:02;6.43;;;2.05;;
70806;SDS011;58882;52.170;5.386;2023-08-17T01:05:29;6.15;;;1.92;;
70806;SDS011;58882;52.170;5.386;2023-08-17T01:07:59;4.97;;;1.88;;
70806;SDS011;58882;52.170;5.386;2023-08-17T01:10:28;9.27;;;2.30;;
70806;SDS011;58882;52.170;5.386;2023-08-17T01:13:05;6.65;;;2.10;;
70806;SDS011;58882;52.170;5.386;2023-08-17T01:15:41;11.32;;;2.38;;
70806;SDS011;58882;52.170;5.386;2023-08-17T01:18:26;6.05;;;2.00;;
70806;SDS011;58882;52.170;5.386;2023-08-17T01:20:59;7.85;;;2.30;;
70806;SDS011;58882;52.170;5.386;2023-08-17T01:23:28;6.00;;;2.22;;
70806;SDS011;58882;52.170;5.386;2023-08-17T01:25:55;8.00;;;1.92;;
70806;SDS011;58882;52.170;5.386;2023-08-17T01:28:24;6.75;;;1.90;;
70806;SDS011;58882;52.170;5.386;2023-08-17T01:31:03;9.05;;;2.10;;
70806;SDS011;58882;52.170;5.386;2023-08-17T01:33:38;6.13;;;1.98;;
70806;SDS011;58882;52.170;5.386;2023-08-17T01:36:20;7.30;;;2.10;;
70806;SDS011;58882;52.170;5.386;2023-08-17T01:38:52;7.05;;;2.30;;
70806;SDS011;58882;52.170;5.386;2023-08-17T01:41:22;4.90;;;2.00;;
70806;SDS011;58882;52.170;5.386;2023-08-17T01:43:50;5.22;;;2.10;;
70806;SDS011;58882;52.170;5.386;2023-08-17T01:46:17;7.00;;;1.90;;
70806;SDS011;58882;52.170;5.386;2023-08-17T01:48:45;4.05;;;2.15;;
70806;SDS011;58882;52.170;5.386;2023-08-17T01:51:16;9.15;;;2.28;;
70806;SDS011;58882;52.170;5.386;2023-08-17T01:53:47;5.72;;;2.15;;
70806;SDS011;58882;52.170;5.386;2023-08-17T01:56:15;7.97;;;2.20;;
70806;SDS011;58882;52.170;5.386;2023-08-17T01:58:42;5.63;;;2.20;;
70806;SDS011;58882;52.170;5.386;2023-08-17T02:01:09;5.07;;;2.00;;
70806;SDS011;58882;52.170;5.386;2023-08-17T02:03:36;6.07;;;2.10;;
70806;SDS011;58882;52.170;5.386;2023-08-17T02:06:03;4.82;;;2.30;;
70806;SDS011;58882;52.170;5.386;2023-08-17T02:08:30;7.65;;;2.45;;
70806;SDS011;58882;52.170;5.386;2023-08-17T02:10:56;8.45;;;2.47;;
70806;SDS011;58882;52.170;5.386;2023-08-17T02:13:23;6.45;;;2.22;;
70806;SDS011;58882;52.170;5.386;2023-08-17T02:15:51;8.70;;;2.42;;
70806;SDS011;58882;52.170;5.386;2023-08-17T02:18:18;6.00;;;2.20;;
70806;SDS011;58882;52.170;5.386;2023-08-17T02:20:45;5.95;;;2.08;;
70806;SDS011;58882;52.170;5.386;2023-08-17T02:23:12;7.85;;;2.28;;
70806;SDS011;58882;52.170;5.386;2023-08-17T02:25:39;5.80;;;2.15;;
70806;SDS011;58882;52.170;5.386;2023-08-17T02:28:06;7.68;;;2.50;;
70806;SDS011;58882;52.170;5.386;2023-08-17T02:30:33;7.68;;;2.30;;
70806;SDS011;58882;52.170;5.386;2023-08-17T02:33:00;6.70;;;2.22;;
70806;SDS011;58882;52.170;5.386;2023-08-17T02:35:27;7.88;;;2.35;;
70806;SDS011;58882;52.170;5.386;2023-08-17T02:37:54;6.25;;;2.42;;
70806;SDS011;58882;52.170;5.386;2023-08-17T02:40:21;6.60;;;2.40;;
70806;SDS011;58882;52.170;5.386;2023-08-17T02:42:48;8.70;;;2.70;;
70806;SDS011;58882;52.170;5.386;2023-08-17T02:45:14;9.93;;;2.67;;
70806;SDS011;58882;52.170;5.386;2023-08-17T02:47:41;8.50;;;2.15;;
70806;SDS011;58882;52.170;5.386;2023-08-17T02:50:08;14.13;;;2.78;;
70806;SDS011;58882;52.170;5.386;2023-08-17T02:52:36;6.00;;;2.42;;
70806;SDS011;58882;52.170;5.386;2023-08-17T02:55:03;8.45;;;2.20;;
70806;SDS011;58882;52.170;5.386;2023-08-17T02:57:30;7.32;;;2.28;;
70806;SDS011;58882;52.170;5.386;2023-08-17T02:59:57;6.00;;;2.15;;
70806;SDS011;58882;52.170;5.386;2023-08-17T03:02:24;9.02;;;2.22;;
70806;SDS011;58882;52.170;5.386;2023-08-17T03:04:51;7.13;;;2.30;;
70806;SDS011;58882;52.170;5.386;2023-08-17T03:07:18;6.13;;;2.25;;
70806;SDS011;58882;52.170;5.386;2023-08-17T03:09:45;4.57;;;2.10;;
70806;SDS011;58882;52.170;5.386;2023-08-17T03:12:12;6.72;;;2.33;;
70806;SDS011;58882;52.170;5.386;2023-08-17T03:14:39;8.30;;;2.10;;
70806;SDS011;58882;52.170;5.386;2023-08-17T03:17:06;6.57;;;2.30;;
70806;SDS011;58882;52.170;5.386;2023-08-17T03:19:33;7.93;;;1.98;;
70806;SDS011;58882;52.170;5.386;2023-08-17T03:22:00;5.60;;;1.90;;
70806;SDS011;58882;52.170;5.386;2023-08-17T03:24:27;5.68;;;2.03;;
70806;SDS011;58882;52.170;5.386;2023-08-17T03:26:55;6.03;;;2.00;;
70806;SDS011;58882;52.170;5.386;2023-08-17T03:29:24;4.72;;;1.95;;
70806;SDS011;58882;52.170;5.386;2023-08-17T03:31:52;6.53;;;2.00;;
70806;SDS011;58882;52.170;5.386;2023-08-17T03:34:22;4.57;;;1.98;;
70806;SDS011;58882;52.170;5.386;2023-08-17T03:36:49;9.00;;;2.10;;
70806;SDS011;58882;52.170;5.386;2023-08-17T03:39:16;6.03;;;2.08;;
70806;SDS011;58882;52.170;5.386;2023-08-17T03:41:43;8.45;;;2.15;;
70806;SDS011;58882;52.170;5.386;2023-08-17T03:44:10;4.82;;;1.85;;
70806;SDS011;58882;52.170;5.386;2023-08-17T03:46:37;5.68;;;2.00;;
70806;SDS011;58882;52.170;5.386;2023-08-17T03:49:04;8.25;;;2.20;;
70806;SDS011;58882;52.170;5.386;2023-08-17T03:51:31;7.13;;;1.95;;
70806;SDS011;58882;52.170;5.386;2023-08-17T03:53:58;5.50;;;2.10;;
70806;SDS011;58882;52.170;5.386;2023-08-17T03:56:25;5.63;;;1.75;;
70806;SDS011;58882;52.170;5.386;2023-08-17T03:58:52;7.82;;;1.90;;
70806;SDS011;58882;52.170;5.386;2023-08-17T04:01:20;5.95;;;1.85;;
70806;SDS011;58882;52.170;5.386;2023-08-17T04:03:47;9.57;;;2.10;;
70806;SDS011;58882;52.170;5.386;2023-08-17T04:06:14;6.43;;;1.70;;
70806;SDS011;58882;52.170;5.386;2023-08-17T04:08:41;7.25;;;1.80;;
70806;SDS011;58882;52.170;5.386;2023-08-17T04:11:08;4.80;;;1.80;;
70806;SDS011;58882;52.170;5.386;2023-08-17T04:13:35;6.10;;;1.83;;
70806;SDS011;58882;52.170;5.386;2023-08-17T04:16:02;5.85;;;1.92;;
70806;SDS011;58882;52.170;5.386;2023-08-17T04:18:29;5.55;;;2.15;;
70806;SDS011;58882;52.170;5.386;2023-08-17T04:20:56;5.22;;;1.83;;
70806;SDS011;58882;52.170;5.386;2023-08-17T04:23:24;6.93;;;1.70;;
70806;SDS011;58882;52.170;5.386;2023-08-17T04:25:50;7.40;;;1.90;;
70806;SDS011;58882;52.170;5.386;2023-08-17T04:28:18;5.18;;;1.73;;
70806;SDS011;58882;52.170;5.386;2023-08-17T04:30:45;4.70;;;1.58;;
70806;SDS011;58882;52.170;5.386;2023-08-17T04:33:12;8.95;;;1.73;;
70806;SDS011;58882;52.170;5.386;2023-08-17T04:35:39;5.70;;;1.60;;
70806;SDS011;58882;52.170;5.386;2023-08-17T04:38:06;6.10;;;1.63;;
70806;SDS011;58882;52.170;5.386;2023-08-17T04:40:33;4.38;;;1.80;;
70806;SDS011;58882;52.170;5.386;2023-08-17T04:43:00;4.80;;;1.60;;
70806;SDS011;58882;52.170;5.386;2023-08-17T04:45:28;7.30;;;1.58;;
70806;SDS011;58882;52.170;5.386;2023-08-17T04:47:54;7.45;;;1.83;;
70806;SDS011;58882;52.170;5.386;2023-08-17T04:50:22;3.55;;;1.40;;
70806;SDS011;58882;52.170;5.386;2023-08-17T04:52:49;5.32;;;1.70;;
70806;SDS011;58882;52.170;5.386;2023-08-17T04:55:16;7.45;;;1.63;;
70806;SDS011;58882;52.170;5.386;2023-08-17T04:57:43;5.60;;;1.70;;
70806;SDS011;58882;52.170;5.386;2023-08-17T05:02:40;6.82;;;1.58;;
70806;SDS011;58882;52.170;5.386;2023-08-17T05:05:09;4.72;;;1.63;;
70806;SDS011;58882;52.170;5.386;2023-08-17T05:07:36;3.90;;;1.40;;
70806;SDS011;58882;52.170;5.386;2023-08-17T05:10:03;6.25;;;1.75;;
70806;SDS011;58882;52.170;5.386;2023-08-17T05:12:33;4.53;;;1.45;;
70806;SDS011;58882;52.170;5.386;2023-08-17T05:15:00;5.18;;;1.58;;
70806;SDS011;58882;52.170;5.386;2023-08-17T05:17:27;4.63;;;1.50;;
70806;SDS011;58882;52.170;5.386;2023-08-17T05:19:55;4.60;;;1.48;;
70806;SDS011;58882;52.170;5.386;2023-08-17T05:22:22;7.25;;;1.38;;
70806;SDS011;58882;52.170;5.386;2023-08-17T05:24:49;3.40;;;1.45;;
70806;SDS011;58882;52.170;5.386;2023-08-17T05:27:17;4.30;;;1.67;;
70806;SDS011;58882;52.170;5.386;2023-08-17T05:29:44;4.40;;;1.45;;
70806;SDS011;58882;52.170;5.386;2023-08-17T05:32:11;3.20;;;1.48;;
70806;SDS011;58882;52.170;5.386;2023-08-17T05:34:40;3.60;;;1.35;;
70806;SDS011;58882;52.170;5.386;2023-08-17T05:37:07;3.60;;;1.50;;
70806;SDS011;58882;52.170;5.386;2023-08-17T05:39:34;5.72;;;1.55;;
70806;SDS011;58882;52.170;5.386;2023-08-17T05:42:02;5.18;;;1.52;;
70806;SDS011;58882;52.170;5.386;2023-08-17T05:44:28;4.03;;;1.42;;
70806;SDS011;58882;52.170;5.386;2023-08-17T05:46:55;3.50;;;1.45;;
70806;SDS011;58882;52.170;5.386;2023-08-17T05:49:22;3.80;;;1.38;;
70806;SDS011;58882;52.170;5.386;2023-08-17T05:51:49;5.35;;;1.67;;
70806;SDS011;58882;52.170;5.386;2023-08-17T05:54:16;5.20;;;1.90;;
70806;SDS011;58882;52.170;5.386;2023-08-17T05:56:43;4.45;;;1.50;;
70806;SDS011;58882;52.170;5.386;2023-08-17T05:59:13;3.78;;;1.55;;
70806;SDS011;58882;52.170;5.386;2023-08-17T06:01:40;4.78;;;1.63;;
70806;SDS011;58882;52.170;5.386;2023-08-17T06:04:07;3.53;;;1.50;;
70806;SDS011;58882;52.170;5.386;2023-08-17T06:06:34;3.97;;;1.42;;
70806;SDS011;58882;52.170;5.386;2023-08-17T06:09:01;4.28;;;1.70;;
70806;SDS011;58882;52.170;5.386;2023-08-17T06:11:28;4.80;;;1.50;;
70806;SDS011;58882;52.170;5.386;2023-08-17T06:13:54;3.95;;;1.60;;
70806;SDS011;58882;52.170;5.386;2023-08-17T06:16:21;4.90;;;1.60;;
70806;SDS011;58882;52.170;5.386;2023-08-17T06:18:49;6.50;;;1.60;;
70806;SDS011;58882;52.170;5.386;2023-08-17T06:23:43;7.22;;;1.70;;
70806;SDS011;58882;52.170;5.386;2023-08-17T06:26:10;5.47;;;1.75;;
70806;SDS011;58882;52.170;5.386;2023-08-17T06:28:37;5.88;;;1.55;;
70806;SDS011;58882;52.170;5.386;2023-08-17T06:31:04;6.35;;;1.60;;
70806;SDS011;58882;52.170;5.386;2023-08-17T06:33:31;6.65;;;1.55;;
70806;SDS011;58882;52.170;5.386;2023-08-17T06:35:58;5.68;;;1.80;;
70806;SDS011;58882;52.170;5.386;2023-08-17T06:38:25;7.05;;;1.90;;
70806;SDS011;58882;52.170;5.386;2023-08-17T06:40:52;5.47;;;1.85;;
70806;SDS011;58882;52.170;5.386;2023-08-17T06:43:19;6.20;;;1.45;;
70806;SDS011;58882;52.170;5.386;2023-08-17T06:45:45;4.20;;;1.50;;
70806;SDS011;58882;52.170;5.386;2023-08-17T06:48:12;6.22;;;1.70;;
70806;SDS011;58882;52.170;5.386;2023-08-17T06:50:39;7.40;;;1.63;;
70806;SDS011;58882;52.170;5.386;2023-08-17T06:53:06;5.88;;;1.80;;
70806;SDS011;58882;52.170;5.386;2023-08-17T06:55:33;5.38;;;1.70;;
70806;SDS011;58882;52.170;5.386;2023-08-17T06:58:00;4.70;;;1.70;;
70806;SDS011;58882;52.170;5.386;2023-08-17T07:00:27;4.78;;;1.92;;
70806;SDS011;58882;52.170;5.386;2023-08-17T07:02:54;8.15;;;1.67;;
70806;SDS011;58882;52.170;5.386;2023-08-17T07:05:25;6.78;;;1.60;;
70806;SDS011;58882;52.170;5.386;2023-08-17T07:07:52;8.13;;;1.90;;
70806;SDS011;58882;52.170;5.386;2023-08-17T07:10:19;6.57;;;1.63;;
70806;SDS011;58882;52.170;5.386;2023-08-17T07:12:46;6.07;;;2.00;;
70806;SDS011;58882;52.170;5.386;2023-08-17T07:15:13;7.13;;;1.80;;
70806;SDS011;58882;52.170;5.386;2023-08-17T07:17:41;5.00;;;1.63;;
70806;SDS011;58882;52.170;5.386;2023-08-17T07:20:08;6.07;;;1.50;;
70806;SDS011;58882;52.170;5.386;2023-08-17T07:22:47;7.57;;;1.83;;
70806;SDS011;58882;52.170;5.386;2023-08-17T07:25:14;6.60;;;1.83;;
70806;SDS011;58882;52.170;5.386;2023-08-17T07:27:41;5.18;;;1.65;;
70806;SDS011;58882;52.170;5.386;2023-08-17T07:30:08;5.57;;;1.80;;
70806;SDS011;58882;52.170;5.386;2023-08-17T07:32:36;8.20;;;1.67;;
70806;SDS011;58882;52.170;5.386;2023-08-17T07:35:02;4.20;;;1.60;;
70806;SDS011;58882;52.170;5.386;2023-08-17T07:37:30;6.05;;;1.83;;
70806;SDS011;58882;52.170;5.386;2023-08-17T07:40:00;4.10;;;1.58;;
70806;SDS011;58882;52.170;5.386;2023-08-17T07:42:30;3.38;;;1.60;;
70806;SDS011;58882;52.170;5.386;2023-08-17T07:44:57;4.80;;;1.80;;
70806;SDS011;58882;52.170;5.386;2023-08-17T07:47:24;5.38;;;1.98;;
70806;SDS011;58882;52.170;5.386;2023-08-17T07:49:52;7.35;;;1.70;;
70806;SDS011;58882;52.170;5.386;2023-08-17T07:52:18;3.53;;;1.60;;
70806;SDS011;58882;52.170;5.386;2023-08-17T07:54:45;5.55;;;1.58;;
70806;SDS011;58882;52.170;5.386;2023-08-17T07:57:12;7.07;;;1.65;;
70806;SDS011;58882;52.170;5.386;2023-08-17T07:59:39;5.93;;;1.73;;
70806;SDS011;58882;52.170;5.386;2023-08-17T08:02:06;4.20;;;1.50;;
70806;SDS011;58882;52.170;5.386;2023-08-17T08:04:33;5.30;;;1.40;;
70806;SDS011;58882;52.170;5.386;2023-08-17T08:06:59;4.35;;;1.40;;
70806;SDS011;58882;52.170;5.386;2023-08-17T08:09:26;6.38;;;1.42;;
70806;SDS011;58882;52.170;5.386;2023-08-17T08:11:53;4.28;;;1.40;;
70806;SDS011;58882;52.170;5.386;2023-08-17T08:14:20;4.05;;;1.60;;
70806;SDS011;58882;52.170;5.386;2023-08-17T08:16:46;2.67;;;1.30;;
70806;SDS011;58882;52.170;5.386;2023-08-17T08:19:13;4.13;;;1.50;;
70806;SDS011;58882;52.170;5.386;2023-08-17T08:21:40;4.43;;;1.48;;
70806;SDS011;58882;52.170;5.386;2023-08-17T08:24:07;3.03;;;1.15;;
70806;SDS011;58882;52.170;5.386;2023-08-17T08:29:14;4.93;;;1.40;;
70806;SDS011;58882;52.170;5.386;2023-08-17T08:31:41;4.55;;;1.30;;
70806;SDS011;58882;52.170;5.386;2023-08-17T08:34:08;4.25;;;1.45;;
70806;SDS011;58882;52.170;5.386;2023-08-17T08:36:34;4.13;;;1.40;;
70806;SDS011;58882;52.170;5.386;2023-08-17T08:39:01;3.58;;;1.20;;
70806;SDS011;58882;52.170;5.386;2023-08-17T08:41:28;5.13;;;1.38;;
70806;SDS011;58882;52.170;5.386;2023-08-17T08:43:56;2.28;;;1.40;;
70806;SDS011;58882;52.170;5.386;2023-08-17T08:46:24;4.65;;;1.30;;
70806;SDS011;58882;52.170;5.386;2023-08-17T08:48:56;4.60;;;1.30;;
70806;SDS011;58882;52.170;5.386;2023-08-17T08:51:25;3.25;;;1.23;;
70806;SDS011;58882;52.170;5.386;2023-08-17T08:54:01;3.75;;;1.20;;
70806;SDS011;58882;52.170;5.386;2023-08-17T08:56:31;2.05;;;1.10;;
70806;SDS011;58882;52.170;5.386;2023-08-17T08:59:01;3.88;;;1.33;;
70806;SDS011;58882;52.170;5.386;2023-08-17T09:01:31;4.70;;;1.30;;
70806;SDS011;58882;52.170;5.386;2023-08-17T09:06:27;3.80;;;1.50;;
70806;SDS011;58882;52.170;5.386;2023-08-17T09:08:57;2.47;;;1.30;;
70806;SDS011;58882;52.170;5.386;2023-08-17T09:11:25;3.35;;;1.33;;
70806;SDS011;58882;52.170;5.386;2023-08-17T09:13:52;5.22;;;1.40;;
70806;SDS011;58882;52.170;5.386;2023-08-17T09:16:19;4.53;;;1.58;;
70806;SDS011;58882;52.170;5.386;2023-08-17T09:18:52;5.47;;;1.60;;
70806;SDS011;58882;52.170;5.386;2023-08-17T09:21:21;5.35;;;1.30;;
70806;SDS011;58882;52.170;5.386;2023-08-17T09:23:55;4.93;;;1.58;;
70806;SDS011;58882;52.170;5.386;2023-08-17T09:26:25;5.65;;;1.60;;
70806;SDS011;58882;52.170;5.386;2023-08-17T09:28:56;5.00;;;1.50;;
70806;SDS011;58882;52.170;5.386;2023-08-17T09:31:25;3.22;;;1.42;;
70806;SDS011;58882;52.170;5.386;2023-08-17T09:33:52;4.82;;;1.50;;
70806;SDS011;58882;52.170;5.386;2023-08-17T09:36:22;5.15;;;1.63;;
70806;SDS011;58882;52.170;5.386;2023-08-17T09:38:51;6.78;;;1.60;;
70806;SDS011;58882;52.170;5.386;2023-08-17T09:41:18;3.95;;;1.70;;
70806;SDS011;58882;52.170;5.386;2023-08-17T09:43:46;3.55;;;1.40;;
70806;SDS011;58882;52.170;5.386;2023-08-17T09:46:14;5.20;;;1.60;;
70806;SDS011;58882;52.170;5.386;2023-08-17T09:48:43;4.63;;;1.52;;
70806;SDS011;58882;52.170;5.386;2023-08-17T09:51:14;4.63;;;1.50;;
70806;SDS011;58882;52.170;5.386;2023-08-17T09:53:42;4.57;;;1.60;;
70806;SDS011;58882;52.170;5.386;2023-08-17T09:56:09;5.97;;;1.70;;
70806;SDS011;58882;52.170;5.386;2023-08-17T09:58:43;4.13;;;1.50;;
70806;SDS011;58882;52.170;5.386;2023-08-17T10:01:10;4.88;;;1.80;;
70806;SDS011;58882;52.170;5.386;2023-08-17T10:03:42;6.53;;;1.92;;
70806;SDS011;58882;52.170;5.386;2023-08-17T10:06:12;5.15;;;1.77;;
70806;SDS011;58882;52.170;5.386;2023-08-17T10:08:43;4.20;;;1.60;;
70806;SDS011;58882;52.170;5.386;2023-08-17T10:11:16;5.55;;;1.88;;
70806;SDS011;58882;52.170;5.386;2023-08-17T10:13:46;4.47;;;1.70;;
70806;SDS011;58882;52.170;5.386;2023-08-17T10:16:26;4.22;;;1.73;;
70806;SDS011;58882;52.170;5.386;2023-08-17T10:19:15;5.30;;;1.65;;
70806;SDS011;58882;52.170;5.386;2023-08-17T10:24:22;3.53;;;1.70;;
70806;SDS011;58882;52.170;5.386;2023-08-17T10:26:49;6.70;;;1.80;;
70806;SDS011;58882;52.170;5.386;2023-08-17T10:29:20;6.65;;;1.73;;
70806;SDS011;58882;52.170;5.386;2023-08-17T10:31:49;5.20;;;1.77;;
70806;SDS011;58882;52.170;5.386;2023-08-17T10:34:17;5.80;;;1.90;;
70806;SDS011;58882;52.170;5.386;2023-08-17T10:36:44;7.53;;;1.90;;
70806;SDS011;58882;52.170;5.386;2023-08-17T10:39:18;7.85;;;1.83;;
70806;SDS011;58882;52.170;5.386;2023-08-17T10:41:53;6.30;;;1.90;;
70806;SDS011;58882;52.170;5.386;2023-08-17T10:47:26;6.75;;;1.90;;
70806;SDS011;58882;52.170;5.386;2023-08-17T10:52:48;5.47;;;1.88;;
70806;SDS011;58882;52.170;5.386;2023-08-17T10:55:16;5.97;;;2.03;;
70806;SDS011;58882;52.170;5.386;2023-08-17T10:57:45;5.25;;;1.77;;
70806;SDS011;58882;52.170;5.386;2023-08-17T11:00:22;6.55;;;1.90;;
70806;SDS011;58882;52.170;5.386;2023-08-17T11:02:57;5.35;;;1.88;;
70806;SDS011;58882;52.170;5.386;2023-08-17T11:05:34;7.82;;;1.85;;
70806;SDS011;58882;52.170;5.386;2023-08-17T11:08:08;5.85;;;2.20;;
70806;SDS011;58882;52.170;5.386;2023-08-17T11:10:36;6.60;;;2.03;;
70806;SDS011;58882;52.170;5.386;2023-08-17T11:13:05;5.45;;;2.10;;
70806;SDS011;58882;52.170;5.386;2023-08-17T11:18:11;9.05;;;2.40;;
70806;SDS011;58882;52.170;5.386;2023-08-17T11:20:39;7.68;;;2.08;;
70806;SDS011;58882;52.170;5.386;2023-08-17T11:23:07;4.28;;;2.13;;
70806;SDS011;58882;52.170;5.386;2023-08-17T11:25:35;10.88;;;2.67;;
70806;SDS011;58882;52.170;5.386;2023-08-17T11:28:05;5.40;;;1.77;;
70806;SDS011;58882;52.170;5.386;2023-08-17T11:30:35;5.82;;;1.90;;
70806;SDS011;58882;52.170;5.386;2023-08-17T11:33:05;5.30;;;2.15;;
70806;SDS011;58882;52.170;5.386;2023-08-17T11:35:32;5.07;;;2.08;;
70806;SDS011;58882;52.170;5.386;2023-08-17T11:37:59;7.22;;;2.30;;
70806;SDS011;58882;52.170;5.386;2023-08-17T11:40:27;5.47;;;2.03;;
70806;SDS011;58882;52.170;5.386;2023-08-17T11:42:54;7.80;;;2.50;;
70806;SDS011;58882;52.170;5.386;2023-08-17T11:45:21;7.78;;;2.40;;
70806;SDS011;58882;52.170;5.386;2023-08-17T11:47:53;5.35;;;2.00;;
70806;SDS011;58882;52.170;5.386;2023-08-17T11:50:20;5.80;;;2.10;;
70806;SDS011;58882;52.170;5.386;2023-08-17T11:52:47;5.65;;;2.10;;
70806;SDS011;58882;52.170;5.386;2023-08-17T11:55:15;7.18;;;2.30;;
70806;SDS011;58882;52.170;5.386;2023-08-17T11:57:46;10.73;;;2.25;;
70806;SDS011;58882;52.170;5.386;2023-08-17T12:00:17;6.15;;;2.10;;
70806;SDS011;58882;52.170;5.386;2023-08-17T12:02:51;7.70;;;2.20;;
70806;SDS011;58882;52.170;5.386;2023-08-17T12:05:22;7.20;;;2.17;;
70806;SDS011;58882;52.170;5.386;2023-08-17T12:07:50;5.22;;;2.08;;
70806;SDS011;58882;52.170;5.386;2023-08-17T12:10:18;7.32;;;2.30;;
70806;SDS011;58882;52.170;5.386;2023-08-17T12:12:46;7.68;;;2.58;;
70806;SDS011;58882;52.170;5.386;2023-08-17T12:15:15;7.00;;;2.65;;
70806;SDS011;58882;52.170;5.386;2023-08-17T12:17:46;6.10;;;2.10;;
70806;SDS011;58882;52.170;5.386;2023-08-17T12:20:16;5.72;;;2.20;;
70806;SDS011;58882;52.170;5.386;2023-08-17T12:22:45;6.80;;;2.30;;
70806;SDS011;58882;52.170;5.386;2023-08-17T12:25:12;6.93;;;2.67;;
70806;SDS011;58882;52.170;5.386;2023-08-17T12:27:39;7.10;;;2.63;;
70806;SDS011;58882;52.170;5.386;2023-08-17T12:30:14;5.07;;;2.03;;
70806;SDS011;58882;52.170;5.386;2023-08-17T12:32:50;5.55;;;2.10;;
70806;SDS011;58882;52.170;5.386;2023-08-17T12:35:18;7.57;;;2.70;;
70806;SDS011;58882;52.170;5.386;2023-08-17T12:37:47;6.60;;;2.63;;
70806;SDS011;58882;52.170;5.386;2023-08-17T12:40:14;7.10;;;2.33;;
70806;SDS011;58882;52.170;5.386;2023-08-17T12:42:41;7.43;;;2.50;;
70806;SDS011;58882;52.170;5.386;2023-08-17T12:45:08;7.47;;;2.25;;
70806;SDS011;58882;52.170;5.386;2023-08-17T12:47:35;6.75;;;2.63;;
70806;SDS011;58882;52.170;5.386;2023-08-17T12:50:02;6.35;;;2.40;;
70806;SDS011;58882;52.170;5.386;2023-08-17T12:52:30;7.78;;;2.85;;
70806;SDS011;58882;52.170;5.386;2023-08-17T12:54:57;8.93;;;2.58;;
70806;SDS011;58882;52.170;5.386;2023-08-17T12:57:24;6.30;;;2.85;;
70806;SDS011;58882;52.170;5.386;2023-08-17T13:02:21;5.95;;;2.60;;
70806;SDS011;58882;52.170;5.386;2023-08-17T13:04:49;7.03;;;2.65;;
70806;SDS011;58882;52.170;5.386;2023-08-17T13:07:16;8.10;;;2.90;;
70806;SDS011;58882;52.170;5.386;2023-08-17T13:09:43;8.52;;;3.10;;
70806;SDS011;58882;52.170;5.386;2023-08-17T13:12:12;6.22;;;2.50;;
70806;SDS011;58882;52.170;5.386;2023-08-17T13:14:39;5.78;;;2.63;;
70806;SDS011;58882;52.170;5.386;2023-08-17T13:17:07;8.73;;;3.17;;
70806;SDS011;58882;52.170;5.386;2023-08-17T13:19:34;7.03;;;2.92;;
70806;SDS011;58882;52.170;5.386;2023-08-17T13:22:00;7.90;;;2.63;;
70806;SDS011;58882;52.170;5.386;2023-08-17T13:24:29;7.05;;;2.90;;
70806;SDS011;58882;52.170;5.386;2023-08-17T13:26:56;7.70;;;2.58;;
70806;SDS011;58882;52.170;5.386;2023-08-17T13:29:23;4.90;;;2.13;;
70806;SDS011;58882;52.170;5.386;2023-08-17T13:31:50;8.75;;;2.78;;
70806;SDS011;58882;52.170;5.386;2023-08-17T13:34:17;6.47;;;2.60;;
70806;SDS011;58882;52.170;5.386;2023-08-17T13:36:44;7.70;;;2.40;;
70806;SDS011;58882;52.170;5.386;2023-08-17T13:39:11;5.63;;;2.70;;
70806;SDS011;58882;52.170;5.386;2023-08-17T13:41:38;6.07;;;2.55;;
70806;SDS011;58882;52.170;5.386;2023-08-17T13:44:04;6.97;;;2.50;;
70806;SDS011;58882;52.170;5.386;2023-08-17T13:46:31;5.22;;;2.33;;
70806;SDS011;58882;52.170;5.386;2023-08-17T13:48:58;5.65;;;2.70;;
70806;SDS011;58882;52.170;5.386;2023-08-17T13:51:25;6.32;;;2.58;;
70806;SDS011;58882;52.170;5.386;2023-08-17T13:53:52;6.20;;;2.42;;
70806;SDS011;58882;52.170;5.386;2023-08-17T13:56:19;4.28;;;2.20;;
70806;SDS011;58882;52.170;5.386;2023-08-17T13:58:46;6.80;;;2.50;;
70806;SDS011;58882;52.170;5.386;2023-08-17T14:01:13;6.68;;;2.30;;
70806;SDS011;58882;52.170;5.386;2023-08-17T14:03:40;6.53;;;2.22;;
70806;SDS011;58882;52.170;5.386;2023-08-17T14:06:09;6.47;;;2.60;;
70806;SDS011;58882;52.170;5.386;2023-08-17T14:08:36;5.00;;;2.30;;
70806;SDS011;58882;52.170;5.386;2023-08-17T14:11:03;5.90;;;2.40;;
70806;SDS011;58882;52.170;5.386;2023-08-17T14:13:30;6.78;;;2.45;;
70806;SDS011;58882;52.170;5.386;2023-08-17T14:15:57;5.22;;;2.63;;
70806;SDS011;58882;52.170;5.386;2023-08-17T14:18:25;5.90;;;2.28;;
70806;SDS011;58882;52.170;5.386;2023-08-17T14:20:52;5.32;;;2.28;;
70806;SDS011;58882;52.170;5.386;2023-08-17T14:23:19;4.00;;;2.33;;
70806;SDS011;58882;52.170;5.386;2023-08-17T14:25:46;5.05;;;2.22;;
70806;SDS011;58882;52.170;5.386;2023-08-17T14:28:13;5.38;;;2.45;;
70806;SDS011;58882;52.170;5.386;2023-08-17T14:30:40;7.30;;;2.83;;
70806;SDS011;58882;52.170;5.386;2023-08-17T14:33:06;5.07;;;2.38;;
70806;SDS011;58882;52.170;5.386;2023-08-17T14:35:33;9.23;;;2.67;;
70806;SDS011;58882;52.170;5.386;2023-08-17T14:38:00;4.68;;;2.60;;
70806;SDS011;58882;52.170;5.386;2023-08-17T14:40:28;5.72;;;2.78;;
70806;SDS011;58882;52.170;5.386;2023-08-17T14:42:55;6.95;;;2.60;;
70806;SDS011;58882;52.170;5.386;2023-08-17T14:45:22;6.88;;;2.95;;
70806;SDS011;58882;52.170;5.386;2023-08-17T14:47:48;6.55;;;2.88;;
70806;SDS011;58882;52.170;5.386;2023-08-17T14:50:15;5.78;;;2.85;;
70806;SDS011;58882;52.170;5.386;2023-08-17T14:52:42;7.47;;;2.95;;
70806;SDS011;58882;52.170;5.386;2023-08-17T14:55:09;6.25;;;2.58;;
70806;SDS011;58882;52.170;5.386;2023-08-17T14:57:36;5.90;;;2.95;;
70806;SDS011;58882;52.170;5.386;2023-08-17T15:00:03;6.20;;;3.00;;
70806;SDS011;58882;52.170;5.386;2023-08-17T15:02:31;8.13;;;3.10;;
70806;SDS011;58882;52.170;5.386;2023-08-17T15:04:58;6.85;;;2.90;;
70806;SDS011;58882;52.170;5.386;2023-08-17T15:07:24;5.93;;;2.88;;
70806;SDS011;58882;52.170;5.386;2023-08-17T15:09:52;7.72;;;3.30;;
70806;SDS011;58882;52.170;5.386;2023-08-17T15:12:19;8.27;;;3.03;;
70806;SDS011;58882;52.170;5.386;2023-08-17T15:14:49;7.00;;;3.05;;
70806;SDS011;58882;52.170;5.386;2023-08-17T15:17:16;8.02;;;3.13;;